Etusivu
METAR-TAF:

METAR-TAF

Lentoasemat :

Harlan Municipal Airport

Harlan, Iowa, Yhdysvallat

Leveyspiiri: 41-35-04N, Pituuspiiri: 095-20-23W, korkeus merenpinnasta: 375 m

Tämänhetkinen sää

Tämä raportti tehtiin 7 minuuttia sitten, kello 12.55 UTC
Tuuli 4 kn lännestä
Lämpötila 16°C
Kosteus 63%
Ilmanpaine 1011 hPa
Näkyvyys: 16.1 km
Hajanaisia pilviä 6500 ft:n korkeudessa
Hajanaisia pilviä 8000 ft:n korkeudessa
Pilvistä 10000 ft:n korkeudessa

METAR: KHNR 271255Z AUTO 28004KT 10SM SCT065 SCT080 OVC100 16/09 A2984 RMK AO2

Aika: 08:02 (13:02 UTC)


TAF: puuttuu

Säähavainnot ja -ennusteet yli 4000 lentoasemalta (METAR- ja TAF-raportit).

Käytössä olevat sääasemat on merkitty karttaan keltaisilla ja punaisilla pisteillä.

Aseta hiiri pisteen päälle nähdäksesi sääaseman nimen.

Klikkaa sitten nähdäksesi säähavainnot ja -ennusteet.

Kartan vaihtaminen: klikkaa mustalla rastilla varustettuja vihreitä pisteitä, niin voit zoomata sisään; viivalla varustettua vihreää pistettä, niin voit zoomata ulos tai vihreitä nuolia, niin pääset viereisille kartoille.


METAR-TAF: